sensor_id;sensor_type;location;lat;lon;timestamp;P1;durP1;ratioP1;P2;durP2;ratioP2
19944;SDS011;10134;50.952;6.930;2022-12-11T00:02:25;42.13;;;18.93;;
19944;SDS011;10134;50.952;6.930;2022-12-11T00:04:54;49.30;;;19.27;;
19944;SDS011;10134;50.952;6.930;2022-12-11T00:07:22;55.30;;;19.80;;
19944;SDS011;10134;50.952;6.930;2022-12-11T00:09:51;62.43;;;20.43;;
19944;SDS011;10134;50.952;6.930;2022-12-11T00:12:18;47.77;;;19.70;;
19944;SDS011;10134;50.952;6.930;2022-12-11T00:14:46;53.07;;;19.40;;
19944;SDS011;10134;50.952;6.930;2022-12-11T00:17:13;53.00;;;19.57;;
19944;SDS011;10134;50.952;6.930;2022-12-11T00:19:40;52.63;;;21.33;;
19944;SDS011;10134;50.952;6.930;2022-12-11T00:22:07;56.33;;;20.77;;
19944;SDS011;10134;50.952;6.930;2022-12-11T00:24:35;56.87;;;20.60;;
19944;SDS011;10134;50.952;6.930;2022-12-11T00:27:02;65.90;;;23.10;;
19944;SDS011;10134;50.952;6.930;2022-12-11T00:29:30;56.73;;;21.77;;
19944;SDS011;10134;50.952;6.930;2022-12-11T00:31:57;53.90;;;22.17;;
19944;SDS011;10134;50.952;6.930;2022-12-11T00:34:24;55.63;;;21.10;;
19944;SDS011;10134;50.952;6.930;2022-12-11T00:36:52;58.40;;;21.17;;
19944;SDS011;10134;50.952;6.930;2022-12-11T00:39:19;61.77;;;22.07;;
19944;SDS011;10134;50.952;6.930;2022-12-11T00:41:46;61.93;;;21.13;;
19944;SDS011;10134;50.952;6.930;2022-12-11T00:44:14;56.80;;;22.13;;
19944;SDS011;10134;50.952;6.930;2022-12-11T00:46:41;51.77;;;21.37;;
19944;SDS011;10134;50.952;6.930;2022-12-11T00:49:08;64.23;;;22.43;;
19944;SDS011;10134;50.952;6.930;2022-12-11T00:51:35;49.33;;;20.97;;
19944;SDS011;10134;50.952;6.930;2022-12-11T00:54:03;71.13;;;25.40;;
19944;SDS011;10134;50.952;6.930;2022-12-11T00:56:30;63.13;;;22.80;;
19944;SDS011;10134;50.952;6.930;2022-12-11T00:58:58;69.00;;;23.83;;
19944;SDS011;10134;50.952;6.930;2022-12-11T01:01:26;64.47;;;22.90;;
19944;SDS011;10134;50.952;6.930;2022-12-11T01:03:53;62.47;;;24.23;;
19944;SDS011;10134;50.952;6.930;2022-12-11T01:06:22;62.33;;;24.47;;
19944;SDS011;10134;50.952;6.930;2022-12-11T01:08:50;72.90;;;23.30;;
19944;SDS011;10134;50.952;6.930;2022-12-11T01:11:37;60.97;;;22.87;;
19944;SDS011;10134;50.952;6.930;2022-12-11T01:14:05;66.00;;;23.17;;
19944;SDS011;10134;50.952;6.930;2022-12-11T01:16:32;58.93;;;24.53;;
19944;SDS011;10134;50.952;6.930;2022-12-11T01:19:00;69.70;;;25.03;;
19944;SDS011;10134;50.952;6.930;2022-12-11T01:21:27;59.67;;;23.63;;
19944;SDS011;10134;50.952;6.930;2022-12-11T01:23:54;60.03;;;24.77;;
19944;SDS011;10134;50.952;6.930;2022-12-11T01:26:22;58.07;;;23.70;;
19944;SDS011;10134;50.952;6.930;2022-12-11T01:28:50;53.43;;;21.30;;
19944;SDS011;10134;50.952;6.930;2022-12-11T01:31:17;50.57;;;22.27;;
19944;SDS011;10134;50.952;6.930;2022-12-11T01:33:46;48.17;;;21.30;;
19944;SDS011;10134;50.952;6.930;2022-12-11T01:36:15;46.83;;;20.47;;
19944;SDS011;10134;50.952;6.930;2022-12-11T01:38:44;53.00;;;20.53;;
19944;SDS011;10134;50.952;6.930;2022-12-11T01:41:12;49.90;;;21.03;;
19944;SDS011;10134;50.952;6.930;2022-12-11T01:44:00;48.53;;;19.10;;
19944;SDS011;10134;50.952;6.930;2022-12-11T01:46:30;47.10;;;19.70;;
19944;SDS011;10134;50.952;6.930;2022-12-11T01:49:00;51.50;;;19.50;;
19944;SDS011;10134;50.952;6.930;2022-12-11T01:51:30;50.07;;;19.67;;
19944;SDS011;10134;50.952;6.930;2022-12-11T01:54:05;48.07;;;21.03;;
19944;SDS011;10134;50.952;6.930;2022-12-11T01:56:36;46.77;;;19.43;;
19944;SDS011;10134;50.952;6.930;2022-12-11T01:59:08;44.73;;;18.73;;
19944;SDS011;10134;50.952;6.930;2022-12-11T02:01:38;46.63;;;18.97;;
19944;SDS011;10134;50.952;6.930;2022-12-11T02:04:08;49.07;;;20.50;;
19944;SDS011;10134;50.952;6.930;2022-12-11T02:06:38;50.40;;;21.47;;
19944;SDS011;10134;50.952;6.930;2022-12-11T02:09:45;53.80;;;20.57;;
19944;SDS011;10134;50.952;6.930;2022-12-11T02:22:47;55.20;;;21.47;;
19944;SDS011;10134;50.952;6.930;2022-12-11T02:25:34;54.07;;;21.53;;
19944;SDS011;10134;50.952;6.930;2022-12-11T02:31:16;48.80;;;20.73;;
19944;SDS011;10134;50.952;6.930;2022-12-11T02:36:25;57.90;;;22.23;;
19944;SDS011;10134;50.952;6.930;2022-12-11T02:38:57;56.43;;;22.30;;
19944;SDS011;10134;50.952;6.930;2022-12-11T02:41:26;64.23;;;22.40;;
19944;SDS011;10134;50.952;6.930;2022-12-11T02:43:55;54.70;;;21.80;;
19944;SDS011;10134;50.952;6.930;2022-12-11T02:46:24;58.33;;;20.57;;
19944;SDS011;10134;50.952;6.930;2022-12-11T02:48:53;55.07;;;19.97;;
19944;SDS011;10134;50.952;6.930;2022-12-11T02:51:24;57.17;;;20.90;;
19944;SDS011;10134;50.952;6.930;2022-12-11T02:53:57;47.00;;;20.80;;
19944;SDS011;10134;50.952;6.930;2022-12-11T02:56:27;59.33;;;20.83;;
19944;SDS011;10134;50.952;6.930;2022-12-11T02:59:05;49.97;;;19.97;;
19944;SDS011;10134;50.952;6.930;2022-12-11T03:01:37;48.07;;;20.90;;
19944;SDS011;10134;50.952;6.930;2022-12-11T03:04:04;47.13;;;18.33;;
19944;SDS011;10134;50.952;6.930;2022-12-11T03:06:33;45.17;;;20.70;;
19944;SDS011;10134;50.952;6.930;2022-12-11T03:09:03;56.43;;;21.97;;
19944;SDS011;10134;50.952;6.930;2022-12-11T03:11:31;51.70;;;18.77;;
19944;SDS011;10134;50.952;6.930;2022-12-11T03:13:58;53.73;;;19.40;;
19944;SDS011;10134;50.952;6.930;2022-12-11T03:16:35;52.50;;;19.20;;
19944;SDS011;10134;50.952;6.930;2022-12-11T03:22:02;46.00;;;17.60;;
19944;SDS011;10134;50.952;6.930;2022-12-11T03:24:50;44.67;;;17.67;;
19944;SDS011;10134;50.952;6.930;2022-12-11T03:27:29;44.57;;;18.60;;
19944;SDS011;10134;50.952;6.930;2022-12-11T03:32:37;48.97;;;19.40;;
19944;SDS011;10134;50.952;6.930;2022-12-11T03:35:27;46.87;;;18.23;;
19944;SDS011;10134;50.952;6.930;2022-12-11T03:38:01;48.37;;;20.33;;
19944;SDS011;10134;50.952;6.930;2022-12-11T03:40:32;51.33;;;19.10;;
19944;SDS011;10134;50.952;6.930;2022-12-11T03:43:01;54.40;;;19.80;;
19944;SDS011;10134;50.952;6.930;2022-12-11T03:45:31;47.10;;;19.93;;
19944;SDS011;10134;50.952;6.930;2022-12-11T03:48:00;47.47;;;19.23;;
19944;SDS011;10134;50.952;6.930;2022-12-11T03:50:29;38.57;;;16.83;;
19944;SDS011;10134;50.952;6.930;2022-12-11T03:52:58;44.60;;;18.00;;
19944;SDS011;10134;50.952;6.930;2022-12-11T03:55:27;44.50;;;18.10;;
19944;SDS011;10134;50.952;6.930;2022-12-11T03:57:55;43.80;;;16.57;;
19944;SDS011;10134;50.952;6.930;2022-12-11T04:00:23;41.37;;;16.90;;
19944;SDS011;10134;50.952;6.930;2022-12-11T04:02:50;43.20;;;16.43;;
19944;SDS011;10134;50.952;6.930;2022-12-11T04:05:40;38.87;;;16.27;;
19944;SDS011;10134;50.952;6.930;2022-12-11T04:08:10;40.80;;;17.13;;
19944;SDS011;10134;50.952;6.930;2022-12-11T04:10:37;41.27;;;18.27;;
19944;SDS011;10134;50.952;6.930;2022-12-11T04:13:05;37.53;;;17.60;;
19944;SDS011;10134;50.952;6.930;2022-12-11T04:15:33;38.57;;;16.27;;
19944;SDS011;10134;50.952;6.930;2022-12-11T04:18:01;43.07;;;16.33;;
19944;SDS011;10134;50.952;6.930;2022-12-11T04:21:08;39.93;;;15.17;;
19944;SDS011;10134;50.952;6.930;2022-12-11T04:23:53;36.63;;;15.23;;
19944;SDS011;10134;50.952;6.930;2022-12-11T04:26:39;39.30;;;15.03;;
19944;SDS011;10134;50.952;6.930;2022-12-11T04:29:11;30.50;;;13.60;;
19944;SDS011;10134;50.952;6.930;2022-12-11T04:31:39;34.43;;;15.23;;
19944;SDS011;10134;50.952;6.930;2022-12-11T04:34:06;30.43;;;13.50;;
19944;SDS011;10134;50.952;6.930;2022-12-11T04:36:34;29.80;;;13.10;;
19944;SDS011;10134;50.952;6.930;2022-12-11T04:39:02;31.53;;;13.93;;
19944;SDS011;10134;50.952;6.930;2022-12-11T04:41:31;31.53;;;13.90;;
19944;SDS011;10134;50.952;6.930;2022-12-11T04:43:59;28.07;;;13.23;;
19944;SDS011;10134;50.952;6.930;2022-12-11T04:46:26;26.03;;;12.83;;
19944;SDS011;10134;50.952;6.930;2022-12-11T04:48:54;26.60;;;12.63;;
19944;SDS011;10134;50.952;6.930;2022-12-11T04:51:23;23.83;;;11.57;;
19944;SDS011;10134;50.952;6.930;2022-12-11T04:53:51;23.93;;;11.43;;
19944;SDS011;10134;50.952;6.930;2022-12-11T04:56:18;29.50;;;12.03;;
19944;SDS011;10134;50.952;6.930;2022-12-11T04:58:47;26.93;;;11.67;;
19944;SDS011;10134;50.952;6.930;2022-12-11T05:01:18;28.27;;;12.47;;
19944;SDS011;10134;50.952;6.930;2022-12-11T05:03:48;25.00;;;12.50;;
19944;SDS011;10134;50.952;6.930;2022-12-11T05:06:15;24.57;;;12.20;;
19944;SDS011;10134;50.952;6.930;2022-12-11T05:08:43;25.27;;;12.77;;
19944;SDS011;10134;50.952;6.930;2022-12-11T05:11:12;25.60;;;12.13;;
19944;SDS011;10134;50.952;6.930;2022-12-11T05:13:42;27.13;;;12.47;;
19944;SDS011;10134;50.952;6.930;2022-12-11T05:16:11;27.77;;;12.90;;
19944;SDS011;10134;50.952;6.930;2022-12-11T05:18:40;23.20;;;11.67;;
19944;SDS011;10134;50.952;6.930;2022-12-11T05:21:09;28.43;;;13.27;;
19944;SDS011;10134;50.952;6.930;2022-12-11T05:23:38;26.83;;;12.87;;
19944;SDS011;10134;50.952;6.930;2022-12-11T05:26:09;29.23;;;12.77;;
19944;SDS011;10134;50.952;6.930;2022-12-11T05:28:38;25.53;;;13.07;;
19944;SDS011;10134;50.952;6.930;2022-12-11T05:31:08;27.20;;;13.27;;
19944;SDS011;10134;50.952;6.930;2022-12-11T05:33:39;27.77;;;12.60;;
19944;SDS011;10134;50.952;6.930;2022-12-11T05:36:07;24.00;;;12.10;;
19944;SDS011;10134;50.952;6.930;2022-12-11T05:38:35;25.47;;;12.10;;
19944;SDS011;10134;50.952;6.930;2022-12-11T05:41:05;27.23;;;12.63;;
19944;SDS011;10134;50.952;6.930;2022-12-11T05:43:34;27.13;;;13.10;;
19944;SDS011;10134;50.952;6.930;2022-12-11T05:46:10;25.27;;;13.87;;
19944;SDS011;10134;50.952;6.930;2022-12-11T05:48:41;29.23;;;13.10;;
19944;SDS011;10134;50.952;6.930;2022-12-11T05:51:09;28.23;;;12.70;;
19944;SDS011;10134;50.952;6.930;2022-12-11T05:53:38;26.50;;;13.30;;
19944;SDS011;10134;50.952;6.930;2022-12-11T05:56:07;26.77;;;12.80;;
19944;SDS011;10134;50.952;6.930;2022-12-11T05:58:44;26.47;;;11.97;;
19944;SDS011;10134;50.952;6.930;2022-12-11T06:01:14;30.90;;;13.53;;
19944;SDS011;10134;50.952;6.930;2022-12-11T06:03:50;26.77;;;13.30;;
19944;SDS011;10134;50.952;6.930;2022-12-11T06:06:19;29.87;;;13.37;;
19944;SDS011;10134;50.952;6.930;2022-12-11T06:08:48;27.60;;;12.63;;
19944;SDS011;10134;50.952;6.930;2022-12-11T06:11:19;24.13;;;12.30;;
19944;SDS011;10134;50.952;6.930;2022-12-11T06:13:50;28.93;;;13.13;;
19944;SDS011;10134;50.952;6.930;2022-12-11T06:16:18;30.07;;;12.77;;
19944;SDS011;10134;50.952;6.930;2022-12-11T06:18:46;32.60;;;13.90;;
19944;SDS011;10134;50.952;6.930;2022-12-11T06:21:15;23.77;;;11.70;;
19944;SDS011;10134;50.952;6.930;2022-12-11T06:23:47;28.17;;;12.93;;
19944;SDS011;10134;50.952;6.930;2022-12-11T06:26:16;28.83;;;13.53;;
19944;SDS011;10134;50.952;6.930;2022-12-11T06:28:44;29.87;;;12.50;;
19944;SDS011;10134;50.952;6.930;2022-12-11T06:31:12;29.00;;;13.33;;
19944;SDS011;10134;50.952;6.930;2022-12-11T06:33:41;22.70;;;11.57;;
19944;SDS011;10134;50.952;6.930;2022-12-11T06:36:13;28.13;;;13.27;;
19944;SDS011;10134;50.952;6.930;2022-12-11T06:38:45;28.33;;;13.70;;
19944;SDS011;10134;50.952;6.930;2022-12-11T06:41:13;28.53;;;13.17;;
19944;SDS011;10134;50.952;6.930;2022-12-11T06:43:41;29.77;;;12.60;;
19944;SDS011;10134;50.952;6.930;2022-12-11T06:46:09;27.23;;;12.10;;
19944;SDS011;10134;50.952;6.930;2022-12-11T06:48:41;28.60;;;13.10;;
19944;SDS011;10134;50.952;6.930;2022-12-11T06:51:13;29.93;;;13.57;;
19944;SDS011;10134;50.952;6.930;2022-12-11T06:53:42;29.87;;;13.43;;
19944;SDS011;10134;50.952;6.930;2022-12-11T06:56:11;28.63;;;14.10;;
19944;SDS011;10134;50.952;6.930;2022-12-11T06:58:40;31.73;;;14.13;;
19944;SDS011;10134;50.952;6.930;2022-12-11T07:01:27;26.10;;;13.10;;
19944;SDS011;10134;50.952;6.930;2022-12-11T07:03:55;27.83;;;13.57;;
19944;SDS011;10134;50.952;6.930;2022-12-11T07:06:24;28.40;;;13.20;;
19944;SDS011;10134;50.952;6.930;2022-12-11T07:08:53;24.30;;;11.83;;
19944;SDS011;10134;50.952;6.930;2022-12-11T07:11:20;32.83;;;14.30;;
19944;SDS011;10134;50.952;6.930;2022-12-11T07:13:48;32.63;;;12.47;;
19944;SDS011;10134;50.952;6.930;2022-12-11T07:16:15;28.17;;;12.43;;
19944;SDS011;10134;50.952;6.930;2022-12-11T07:18:46;29.20;;;13.30;;
19944;SDS011;10134;50.952;6.930;2022-12-11T07:21:15;28.37;;;13.33;;
19944;SDS011;10134;50.952;6.930;2022-12-11T07:23:43;27.57;;;12.17;;
19944;SDS011;10134;50.952;6.930;2022-12-11T07:26:14;32.93;;;14.10;;
19944;SDS011;10134;50.952;6.930;2022-12-11T07:28:43;26.83;;;12.10;;
19944;SDS011;10134;50.952;6.930;2022-12-11T07:31:12;34.67;;;14.97;;
19944;SDS011;10134;50.952;6.930;2022-12-11T07:33:41;28.73;;;12.67;;
19944;SDS011;10134;50.952;6.930;2022-12-11T07:36:09;30.50;;;13.67;;
19944;SDS011;10134;50.952;6.930;2022-12-11T07:38:38;27.53;;;13.63;;
19944;SDS011;10134;50.952;6.930;2022-12-11T07:41:07;32.20;;;14.17;;
19944;SDS011;10134;50.952;6.930;2022-12-11T07:43:36;26.90;;;13.30;;
19944;SDS011;10134;50.952;6.930;2022-12-11T07:46:05;29.70;;;12.77;;
19944;SDS011;10134;50.952;6.930;2022-12-11T07:48:35;23.00;;;12.47;;
19944;SDS011;10134;50.952;6.930;2022-12-11T07:51:11;24.30;;;12.23;;
19944;SDS011;10134;50.952;6.930;2022-12-11T07:53:43;27.80;;;12.70;;
19944;SDS011;10134;50.952;6.930;2022-12-11T07:56:13;26.63;;;13.70;;
19944;SDS011;10134;50.952;6.930;2022-12-11T07:58:41;30.57;;;13.67;;
19944;SDS011;10134;50.952;6.930;2022-12-11T08:01:12;24.57;;;12.70;;
19944;SDS011;10134;50.952;6.930;2022-12-11T08:03:44;27.40;;;12.30;;
19944;SDS011;10134;50.952;6.930;2022-12-11T08:06:13;21.90;;;11.93;;
19944;SDS011;10134;50.952;6.930;2022-12-11T08:08:41;22.33;;;11.37;;
19944;SDS011;10134;50.952;6.930;2022-12-11T08:11:10;30.17;;;12.73;;
19944;SDS011;10134;50.952;6.930;2022-12-11T08:13:38;28.80;;;13.33;;
19944;SDS011;10134;50.952;6.930;2022-12-11T08:16:09;28.93;;;12.60;;
19944;SDS011;10134;50.952;6.930;2022-12-11T08:18:39;29.93;;;12.27;;
19944;SDS011;10134;50.952;6.930;2022-12-11T08:21:09;30.63;;;13.23;;
19944;SDS011;10134;50.952;6.930;2022-12-11T08:23:47;32.40;;;13.63;;
19944;SDS011;10134;50.952;6.930;2022-12-11T08:26:19;29.33;;;12.50;;
19944;SDS011;10134;50.952;6.930;2022-12-11T08:28:48;25.20;;;12.43;;
19944;SDS011;10134;50.952;6.930;2022-12-11T08:31:16;28.40;;;13.43;;
19944;SDS011;10134;50.952;6.930;2022-12-11T08:33:44;30.03;;;13.10;;
19944;SDS011;10134;50.952;6.930;2022-12-11T08:36:13;30.87;;;13.87;;
19944;SDS011;10134;50.952;6.930;2022-12-11T08:38:42;29.37;;;13.17;;
19944;SDS011;10134;50.952;6.930;2022-12-11T08:41:10;30.60;;;14.20;;
19944;SDS011;10134;50.952;6.930;2022-12-11T08:43:39;24.57;;;13.20;;
19944;SDS011;10134;50.952;6.930;2022-12-11T08:46:07;28.40;;;13.70;;
19944;SDS011;10134;50.952;6.930;2022-12-11T08:48:36;24.93;;;12.00;;
19944;SDS011;10134;50.952;6.930;2022-12-11T08:51:05;26.33;;;13.03;;
19944;SDS011;10134;50.952;6.930;2022-12-11T08:53:35;22.80;;;12.10;;
19944;SDS011;10134;50.952;6.930;2022-12-11T08:56:03;28.23;;;12.03;;
19944;SDS011;10134;50.952;6.930;2022-12-11T08:58:38;32.40;;;12.57;;
19944;SDS011;10134;50.952;6.930;2022-12-11T09:01:06;26.93;;;13.30;;
19944;SDS011;10134;50.952;6.930;2022-12-11T09:03:38;27.30;;;13.07;;
19944;SDS011;10134;50.952;6.930;2022-12-11T09:06:07;28.73;;;14.07;;
19944;SDS011;10134;50.952;6.930;2022-12-11T09:08:36;25.93;;;13.00;;
19944;SDS011;10134;50.952;6.930;2022-12-11T09:11:08;24.97;;;13.47;;
19944;SDS011;10134;50.952;6.930;2022-12-11T09:13:41;32.03;;;13.40;;
19944;SDS011;10134;50.952;6.930;2022-12-11T09:16:13;30.57;;;13.53;;
19944;SDS011;10134;50.952;6.930;2022-12-11T09:18:43;32.53;;;13.70;;
19944;SDS011;10134;50.952;6.930;2022-12-11T09:21:13;27.47;;;13.50;;
19944;SDS011;10134;50.952;6.930;2022-12-11T09:23:42;31.10;;;13.50;;
19944;SDS011;10134;50.952;6.930;2022-12-11T09:26:11;27.10;;;12.77;;
19944;SDS011;10134;50.952;6.930;2022-12-11T09:28:41;27.53;;;12.37;;
19944;SDS011;10134;50.952;6.930;2022-12-11T09:31:14;27.13;;;12.43;;
19944;SDS011;10134;50.952;6.930;2022-12-11T09:33:46;30.60;;;13.30;;
19944;SDS011;10134;50.952;6.930;2022-12-11T09:36:13;26.47;;;12.67;;
19944;SDS011;10134;50.952;6.930;2022-12-11T09:38:41;35.37;;;13.20;;
19944;SDS011;10134;50.952;6.930;2022-12-11T09:44:19;25.77;;;12.40;;
19944;SDS011;10134;50.952;6.930;2022-12-11T09:47:39;27.90;;;13.10;;
19944;SDS011;10134;50.952;6.930;2022-12-11T09:50:20;29.43;;;14.43;;
19944;SDS011;10134;50.952;6.930;2022-12-11T09:56:02;25.13;;;12.43;;
19944;SDS011;10134;50.952;6.930;2022-12-11T10:01:53;27.23;;;13.20;;
19944;SDS011;10134;50.952;6.930;2022-12-11T10:04:53;30.80;;;13.00;;
19944;SDS011;10134;50.952;6.930;2022-12-11T10:07:50;28.80;;;12.70;;
19944;SDS011;10134;50.952;6.930;2022-12-11T10:10:32;24.93;;;12.87;;
19944;SDS011;10134;50.952;6.930;2022-12-11T10:13:14;27.83;;;14.30;;
19944;SDS011;10134;50.952;6.930;2022-12-11T10:15:53;31.40;;;14.30;;
19944;SDS011;10134;50.952;6.930;2022-12-11T10:18:29;31.50;;;14.47;;
19944;SDS011;10134;50.952;6.930;2022-12-11T10:20:59;29.93;;;13.20;;
19944;SDS011;10134;50.952;6.930;2022-12-11T10:23:29;33.73;;;14.83;;
19944;SDS011;10134;50.952;6.930;2022-12-11T10:26:05;29.47;;;14.07;;
19944;SDS011;10134;50.952;6.930;2022-12-11T10:28:43;31.60;;;13.80;;
19944;SDS011;10134;50.952;6.930;2022-12-11T10:31:17;30.73;;;14.20;;
19944;SDS011;10134;50.952;6.930;2022-12-11T10:36:27;31.83;;;14.50;;
19944;SDS011;10134;50.952;6.930;2022-12-11T10:39:08;30.00;;;12.67;;
19944;SDS011;10134;50.952;6.930;2022-12-11T10:41:42;32.73;;;14.57;;
19944;SDS011;10134;50.952;6.930;2022-12-11T10:44:15;30.73;;;14.40;;
19944;SDS011;10134;50.952;6.930;2022-12-11T10:46:45;30.70;;;14.77;;
19944;SDS011;10134;50.952;6.930;2022-12-11T10:49:21;31.87;;;15.20;;
19944;SDS011;10134;50.952;6.930;2022-12-11T10:51:51;31.50;;;15.40;;
19944;SDS011;10134;50.952;6.930;2022-12-11T10:54:31;25.80;;;12.83;;
19944;SDS011;10134;50.952;6.930;2022-12-11T10:57:04;29.17;;;13.07;;
19944;SDS011;10134;50.952;6.930;2022-12-11T10:59:43;30.77;;;14.37;;
19944;SDS011;10134;50.952;6.930;2022-12-11T11:04:53;38.80;;;16.97;;
19944;SDS011;10134;50.952;6.930;2022-12-11T11:07:23;36.50;;;15.23;;
19944;SDS011;10134;50.952;6.930;2022-12-11T11:12:38;38.80;;;16.47;;
19944;SDS011;10134;50.952;6.930;2022-12-11T11:17:51;42.63;;;18.27;;
19944;SDS011;10134;50.952;6.930;2022-12-11T11:20:25;59.13;;;22.13;;
19944;SDS011;10134;50.952;6.930;2022-12-11T11:22:55;49.27;;;20.97;;
19944;SDS011;10134;50.952;6.930;2022-12-11T11:25:29;53.33;;;22.17;;
19944;SDS011;10134;50.952;6.930;2022-12-11T11:28:03;52.77;;;21.77;;
19944;SDS011;10134;50.952;6.930;2022-12-11T11:30:38;57.30;;;23.73;;
19944;SDS011;10134;50.952;6.930;2022-12-11T11:33:17;49.57;;;22.47;;
19944;SDS011;10134;50.952;6.930;2022-12-11T11:35:50;58.73;;;23.43;;
19944;SDS011;10134;50.952;6.930;2022-12-11T11:38:19;58.97;;;22.87;;
19944;SDS011;10134;50.952;6.930;2022-12-11T11:41:10;53.10;;;23.17;;
19944;SDS011;10134;50.952;6.930;2022-12-11T11:46:16;46.13;;;19.73;;
19944;SDS011;10134;50.952;6.930;2022-12-11T11:49:07;46.97;;;19.53;;
19944;SDS011;10134;50.952;6.930;2022-12-11T11:57:34;44.63;;;18.17;;
19944;SDS011;10134;50.952;6.930;2022-12-11T12:00:19;43.37;;;21.03;;
19944;SDS011;10134;50.952;6.930;2022-12-11T12:03:08;45.27;;;17.93;;
19944;SDS011;10134;50.952;6.930;2022-12-11T12:05:51;40.17;;;17.23;;
19944;SDS011;10134;50.952;6.930;2022-12-11T12:08:43;41.10;;;17.73;;
19944;SDS011;10134;50.952;6.930;2022-12-11T12:11:39;37.87;;;17.60;;
19944;SDS011;10134;50.952;6.930;2022-12-11T12:17:24;33.93;;;15.70;;
19944;SDS011;10134;50.952;6.930;2022-12-11T12:20:08;40.23;;;16.07;;
19944;SDS011;10134;50.952;6.930;2022-12-11T12:22:50;35.33;;;16.07;;
19944;SDS011;10134;50.952;6.930;2022-12-11T12:25:27;33.30;;;15.23;;
19944;SDS011;10134;50.952;6.930;2022-12-11T12:28:21;36.77;;;16.43;;
19944;SDS011;10134;50.952;6.930;2022-12-11T12:31:12;38.80;;;17.80;;
19944;SDS011;10134;50.952;6.930;2022-12-11T12:34:03;32.53;;;15.37;;
19944;SDS011;10134;50.952;6.930;2022-12-11T12:48:12;42.37;;;18.23;;
19944;SDS011;10134;50.952;6.930;2022-12-11T12:50:41;36.17;;;17.97;;
19944;SDS011;10134;50.952;6.930;2022-12-11T12:53:16;40.53;;;18.60;;
19944;SDS011;10134;50.952;6.930;2022-12-11T12:55:49;38.27;;;16.87;;
19944;SDS011;10134;50.952;6.930;2022-12-11T12:58:29;32.23;;;16.50;;
19944;SDS011;10134;50.952;6.930;2022-12-11T13:03:53;35.80;;;14.93;;
19944;SDS011;10134;50.952;6.930;2022-12-11T13:09:12;40.43;;;17.80;;
19944;SDS011;10134;50.952;6.930;2022-12-11T13:11:52;41.20;;;16.30;;
19944;SDS011;10134;50.952;6.930;2022-12-11T13:14:25;38.00;;;18.13;;
19944;SDS011;10134;50.952;6.930;2022-12-11T13:17:06;39.50;;;16.07;;
19944;SDS011;10134;50.952;6.930;2022-12-11T13:19:46;37.57;;;16.57;;
19944;SDS011;10134;50.952;6.930;2022-12-11T13:22:19;32.43;;;14.57;;
19944;SDS011;10134;50.952;6.930;2022-12-11T13:24:55;33.67;;;16.53;;
19944;SDS011;10134;50.952;6.930;2022-12-11T13:27:47;35.33;;;17.03;;
19944;SDS011;10134;50.952;6.930;2022-12-11T13:32:40;36.17;;;16.10;;
19944;SDS011;10134;50.952;6.930;2022-12-11T13:35:13;37.57;;;17.40;;
19944;SDS011;10134;50.952;6.930;2022-12-11T13:37:44;40.93;;;18.20;;
19944;SDS011;10134;50.952;6.930;2022-12-11T13:40:14;38.03;;;16.57;;
19944;SDS011;10134;50.952;6.930;2022-12-11T13:42:49;32.23;;;16.13;;
19944;SDS011;10134;50.952;6.930;2022-12-11T13:45:17;36.10;;;15.00;;
19944;SDS011;10134;50.952;6.930;2022-12-11T13:47:48;29.83;;;13.47;;
19944;SDS011;10134;50.952;6.930;2022-12-11T13:50:18;26.13;;;13.07;;
19944;SDS011;10134;50.952;6.930;2022-12-11T13:52:53;34.70;;;15.00;;
19944;SDS011;10134;50.952;6.930;2022-12-11T13:55:23;29.87;;;13.20;;
19944;SDS011;10134;50.952;6.930;2022-12-11T13:57:53;27.63;;;12.53;;
19944;SDS011;10134;50.952;6.930;2022-12-11T14:00:21;30.87;;;13.93;;
19944;SDS011;10134;50.952;6.930;2022-12-11T14:02:54;26.27;;;13.83;;
19944;SDS011;10134;50.952;6.930;2022-12-11T14:05:23;31.27;;;12.37;;
19944;SDS011;10134;50.952;6.930;2022-12-11T14:07:51;27.87;;;12.53;;
19944;SDS011;10134;50.952;6.930;2022-12-11T14:10:25;31.00;;;13.27;;
19944;SDS011;10134;50.952;6.930;2022-12-11T14:13:04;25.30;;;11.67;;
19944;SDS011;10134;50.952;6.930;2022-12-11T14:15:34;24.40;;;12.00;;
19944;SDS011;10134;50.952;6.930;2022-12-11T14:18:02;29.33;;;12.77;;
19944;SDS011;10134;50.952;6.930;2022-12-11T14:20:31;27.50;;;13.07;;
19944;SDS011;10134;50.952;6.930;2022-12-11T14:23:19;26.70;;;12.60;;
19944;SDS011;10134;50.952;6.930;2022-12-11T14:25:56;21.80;;;11.47;;
19944;SDS011;10134;50.952;6.930;2022-12-11T14:28:50;23.67;;;12.17;;
19944;SDS011;10134;50.952;6.930;2022-12-11T14:31:36;26.60;;;11.63;;
19944;SDS011;10134;50.952;6.930;2022-12-11T14:34:13;31.83;;;14.17;;
19944;SDS011;10134;50.952;6.930;2022-12-11T14:36:44;27.87;;;13.37;;
19944;SDS011;10134;50.952;6.930;2022-12-11T14:41:57;35.63;;;16.10;;
19944;SDS011;10134;50.952;6.930;2022-12-11T14:44:26;33.83;;;15.07;;
19944;SDS011;10134;50.952;6.930;2022-12-11T14:47:09;31.37;;;15.40;;
19944;SDS011;10134;50.952;6.930;2022-12-11T14:49:45;32.97;;;15.50;;
19944;SDS011;10134;50.952;6.930;2022-12-11T14:52:22;30.47;;;15.00;;
19944;SDS011;10134;50.952;6.930;2022-12-11T14:57:41;32.80;;;14.53;;
19944;SDS011;10134;50.952;6.930;2022-12-11T15:02:59;30.90;;;13.67;;
19944;SDS011;10134;50.952;6.930;2022-12-11T15:05:29;27.23;;;12.70;;
19944;SDS011;10134;50.952;6.930;2022-12-11T15:10:38;26.10;;;11.90;;
19944;SDS011;10134;50.952;6.930;2022-12-11T15:13:08;20.80;;;9.80;;
19944;SDS011;10134;50.952;6.930;2022-12-11T15:15:37;21.03;;;9.87;;
19944;SDS011;10134;50.952;6.930;2022-12-11T15:18:21;27.17;;;12.73;;
19944;SDS011;10134;50.952;6.930;2022-12-11T15:21:00;31.53;;;14.90;;
19944;SDS011;10134;50.952;6.930;2022-12-11T15:23:33;27.00;;;12.83;;
19944;SDS011;10134;50.952;6.930;2022-12-11T15:26:31;22.27;;;11.53;;
19944;SDS011;10134;50.952;6.930;2022-12-11T15:29:01;24.73;;;12.83;;
19944;SDS011;10134;50.952;6.930;2022-12-11T15:31:32;25.80;;;12.60;;
19944;SDS011;10134;50.952;6.930;2022-12-11T15:34:19;30.17;;;13.63;;
19944;SDS011;10134;50.952;6.930;2022-12-11T15:36:48;31.00;;;14.43;;
19944;SDS011;10134;50.952;6.930;2022-12-11T15:39:15;30.07;;;14.80;;
19944;SDS011;10134;50.952;6.930;2022-12-11T15:41:43;31.07;;;15.00;;
19944;SDS011;10134;50.952;6.930;2022-12-11T15:44:14;31.97;;;15.60;;
19944;SDS011;10134;50.952;6.930;2022-12-11T15:46:45;31.40;;;14.97;;
19944;SDS011;10134;50.952;6.930;2022-12-11T15:49:12;30.93;;;14.53;;
19944;SDS011;10134;50.952;6.930;2022-12-11T15:51:40;29.80;;;15.07;;
19944;SDS011;10134;50.952;6.930;2022-12-11T15:54:09;28.07;;;13.93;;
19944;SDS011;10134;50.952;6.930;2022-12-11T15:56:36;26.53;;;15.07;;
19944;SDS011;10134;50.952;6.930;2022-12-11T15:59:03;32.67;;;14.63;;
19944;SDS011;10134;50.952;6.930;2022-12-11T16:01:32;30.37;;;14.93;;
19944;SDS011;10134;50.952;6.930;2022-12-11T16:04:00;31.13;;;13.83;;
19944;SDS011;10134;50.952;6.930;2022-12-11T16:06:31;29.40;;;14.70;;
19944;SDS011;10134;50.952;6.930;2022-12-11T16:08:58;30.77;;;14.63;;
19944;SDS011;10134;50.952;6.930;2022-12-11T16:11:26;31.37;;;14.60;;
19944;SDS011;10134;50.952;6.930;2022-12-11T16:13:54;30.57;;;15.10;;
19944;SDS011;10134;50.952;6.930;2022-12-11T16:16:21;30.37;;;14.63;;